Orienta, Oklahoma
Current Conditions -  °F | °C
As of 10:15 PM on Wednesday 17 Dec 2014 (Local Time) from KJWG Reporting Station
Haze Haze  
Wind Chill:   Ceiling: 500
Heat Index:   Visibility: 5mi
Dew Point:   Wind: 6mph
Humidity: 100%   Direction: 120°ESE
Pressure: 30.13"   Gusts: NA
Location:  36.2837°N, 98.6091°W
Report Text: KJWG 180415Z AUTO 12005KT 5SM BR OVC005 03/03 A3013 RMK AO2 T00250025 TSNO
Loading
Personal Weather Stations






























Interactive Weather Map New forecast layout! Learn more

10-Day Weather Forecast

Advertisements
Track Severe Weather on mobile